createdAt,value
2022-11-14T00:01:45.522Z,33.40
2022-11-14T00:07:06.437Z,34.47
2022-11-14T00:12:27.924Z,34.00
2022-11-14T00:17:48.600Z,34.80
2022-11-14T00:23:09.642Z,34.20
2022-11-14T00:28:30.754Z,34.50
2022-11-14T00:33:51.933Z,34.30
2022-11-14T00:39:14.393Z,35.27
2022-11-14T00:44:35.150Z,35.07
2022-11-14T00:49:56.184Z,35.30
2022-11-14T00:55:17.178Z,34.33
2022-11-14T01:00:38.519Z,34.73
2022-11-14T01:06:05.099Z,34.17
2022-11-14T01:11:26.037Z,34.60
2022-11-14T01:16:47.302Z,34.63
2022-11-14T01:22:08.260Z,35.10
2022-11-14T01:27:32.295Z,34.17
2022-11-14T01:32:53.383Z,33.50
2022-11-14T01:38:15.637Z,35.20
2022-11-14T01:43:39.292Z,33.53
2022-11-14T01:49:02.745Z,34.73
2022-11-14T01:54:27.966Z,33.57
2022-11-14T01:59:53.567Z,34.13
2022-11-14T02:05:17.411Z,33.33
2022-11-14T02:10:38.309Z,34.40
2022-11-14T02:15:59.351Z,33.73
2022-11-14T02:21:21.003Z,34.83
2022-11-14T02:26:42.802Z,34.87
2022-11-14T02:32:10.355Z,34.63
2022-11-14T02:37:31.817Z,34.03
2022-11-14T02:42:52.729Z,34.00
2022-11-14T02:48:13.828Z,35.67
2022-11-14T02:53:34.760Z,35.63
2022-11-14T02:58:55.790Z,36.87
2022-11-14T03:04:16.760Z,36.47
2022-11-14T03:09:37.681Z,39.53
2022-11-14T03:14:58.727Z,37.77
2022-11-14T03:20:19.706Z,38.60
2022-11-14T03:25:40.784Z,38.27
2022-11-14T03:31:01.946Z,37.77
2022-11-14T03:36:22.937Z,39.03
2022-11-14T03:41:43.742Z,39.03
2022-11-14T03:47:04.748Z,38.70
2022-11-14T03:52:26.175Z,36.30
2022-11-14T03:57:47.027Z,38.60
2022-11-14T04:03:07.942Z,38.00
2022-11-14T04:08:29.132Z,37.67
2022-11-14T04:13:50.597Z,38.67
2022-11-14T04:19:11.545Z,37.13
2022-11-14T04:24:32.947Z,35.80
2022-11-14T04:29:53.738Z,36.77
2022-11-14T04:35:15.567Z,35.80
2022-11-14T04:40:36.831Z,33.43
2022-11-14T04:45:57.792Z,34.23
2022-11-14T04:51:19.049Z,35.80
2022-11-14T04:56:39.792Z,34.17
2022-11-14T05:02:00.598Z,33.27
2022-11-14T05:07:21.476Z,35.63
2022-11-14T05:12:42.452Z,33.00
2022-11-14T05:18:03.631Z,32.13
2022-11-14T05:23:24.415Z,33.30
2022-11-14T05:28:45.587Z,35.57
2022-11-14T05:34:12.968Z,35.63
2022-11-14T05:39:35.698Z,34.60
2022-11-14T05:44:56.841Z,34.03
2022-11-14T05:50:17.709Z,34.50
2022-11-14T05:55:38.784Z,34.90
2022-11-14T06:01:11.700Z,35.77
2022-11-14T06:06:32.496Z,36.30
2022-11-14T06:11:53.454Z,37.37
2022-11-14T06:17:14.400Z,39.67
2022-11-14T06:22:36.009Z,38.83
2022-11-14T06:27:58.763Z,37.87
2022-11-14T06:33:19.670Z,36.53
2022-11-14T06:38:42.391Z,37.23
2022-11-14T06:44:03.187Z,38.47
2022-11-14T06:49:25.090Z,37.40
2022-11-14T06:54:45.902Z,37.00
2022-11-14T07:00:07.871Z,36.53
2022-11-14T07:05:28.776Z,33.40
2022-11-14T07:10:49.836Z,36.73
2022-11-14T07:16:10.773Z,35.90
2022-11-14T07:21:33.429Z,39.53
2022-11-14T07:26:59.332Z,37.67
2022-11-14T07:32:20.661Z,34.30
2022-11-14T07:37:44.135Z,31.90
2022-11-14T07:43:05.690Z,34.57
2022-11-14T07:48:26.586Z,33.17
2022-11-14T07:53:47.642Z,34.13
2022-11-14T07:59:08.671Z,31.83
2022-11-14T08:04:30.214Z,32.50
2022-11-14T08:09:51.219Z,30.33
2022-11-14T08:15:14.097Z,30.73
2022-11-14T08:20:35.283Z,29.57
2022-11-14T08:25:58.953Z,30.67
2022-11-14T08:31:21.277Z,29.83
2022-11-14T08:36:42.022Z,28.63
2022-11-14T08:42:02.998Z,27.77
2022-11-14T08:47:24.294Z,27.97
2022-11-14T08:52:51.172Z,27.37
2022-11-14T08:58:12.529Z,29.63
2022-11-14T09:03:34.275Z,30.77
2022-11-14T09:08:56.056Z,27.87
2022-11-14T09:14:17.041Z,26.13
2022-11-14T09:19:38.064Z,26.20
2022-11-14T09:24:59.312Z,25.50
2022-11-14T09:30:20.518Z,26.60
2022-11-14T09:35:41.553Z,27.67
2022-11-14T09:41:08.935Z,29.53
2022-11-14T09:46:43.637Z,28.30
2022-11-14T09:52:31.442Z,28.97
2022-11-14T09:57:52.366Z,25.60
2022-11-14T10:03:25.572Z,26.07
2022-11-14T10:09:00.353Z,26.20
2022-11-14T10:14:50.522Z,33.57
2022-11-14T10:20:44.875Z,25.67
2022-11-14T10:26:24.045Z,30.47
2022-11-14T10:32:14.381Z,29.73
2022-11-14T10:37:53.250Z,30.30
2022-11-14T10:43:24.736Z,53.20
2022-11-14T10:48:48.315Z,29.00
2022-11-14T10:54:21.334Z,31.23
2022-11-14T10:59:43.241Z,30.47
2022-11-14T11:05:14.815Z,28.70
2022-11-14T11:11:00.322Z,30.03
2022-11-14T11:16:26.800Z,30.97
2022-11-14T11:21:53.000Z,31.87
2022-11-14T11:27:23.522Z,31.03
2022-11-14T11:32:44.702Z,27.20
2022-11-14T11:38:06.852Z,30.23
2022-11-14T11:43:40.204Z,31.17
2022-11-14T11:49:14.009Z,36.67
2022-11-14T11:54:56.357Z,29.83
2022-11-14T12:00:18.498Z,25.60
2022-11-14T12:05:58.345Z,24.87
2022-11-14T12:11:22.572Z,28.30
2022-11-14T12:17:18.918Z,28.60
2022-11-14T12:22:42.440Z,28.83
2022-11-14T12:28:24.820Z,26.57
2022-11-14T12:33:56.054Z,26.53
2022-11-14T12:39:26.997Z,26.07
2022-11-14T12:44:48.025Z,25.80
2022-11-14T12:50:31.324Z,25.03
2022-11-14T12:55:52.353Z,34.60
2022-11-14T13:01:47.342Z,40.20
2022-11-14T13:07:51.812Z,27.60
2022-11-14T13:13:33.767Z,26.43
2022-11-14T13:19:32.669Z,25.80
2022-11-14T13:24:59.700Z,22.30
2022-11-14T13:30:59.587Z,24.33
2022-11-14T13:36:54.605Z,24.83
2022-11-14T13:42:41.062Z,24.30
2022-11-14T13:48:07.820Z,29.77
2022-11-14T13:53:31.863Z,32.97
2022-11-14T13:59:37.800Z,37.93
2022-11-14T14:05:10.878Z,31.90
2022-11-14T14:10:48.529Z,26.03
2022-11-14T14:16:36.494Z,28.27
2022-11-14T14:22:15.036Z,25.77
2022-11-14T14:28:09.227Z,25.90
2022-11-14T14:33:48.863Z,28.00
2022-11-14T14:39:17.619Z,36.53
2022-11-14T14:44:39.665Z,111.73
2022-11-14T14:50:13.015Z,38.97
2022-11-14T14:55:36.114Z,35.80
2022-11-14T15:01:05.153Z,45.77
2022-11-14T15:06:36.466Z,46.37
2022-11-14T15:11:59.390Z,48.77
2022-11-14T15:17:21.610Z,47.30
2022-11-14T15:22:42.460Z,46.33
2022-11-14T15:28:04.088Z,47.50
2022-11-14T15:33:30.025Z,43.03
2022-11-14T15:39:26.699Z,46.50
2022-11-14T15:44:49.614Z,45.67
2022-11-14T15:50:13.475Z,51.00
2022-11-14T15:55:34.482Z,48.27
2022-11-14T16:00:56.994Z,85.63
2022-11-14T16:06:18.356Z,68.47
2022-11-14T16:11:39.457Z,60.03
2022-11-14T16:17:00.584Z,57.70
2022-11-14T16:22:21.104Z,49.33
2022-11-14T16:27:42.121Z,46.00
2022-11-14T16:33:03.018Z,48.00
2022-11-14T16:38:23.873Z,53.27
2022-11-14T16:43:45.157Z,46.83
2022-11-14T16:49:06.602Z,43.73
2022-11-14T16:54:27.887Z,42.43
2022-11-14T16:59:48.620Z,43.60
2022-11-14T17:05:10.189Z,49.90
2022-11-14T17:10:30.804Z,50.67
2022-11-14T17:15:51.949Z,45.20
2022-11-14T17:21:13.485Z,41.93
2022-11-14T17:26:35.078Z,42.57
2022-11-14T17:31:55.782Z,44.37
2022-11-14T17:37:16.780Z,37.17
2022-11-14T17:42:37.710Z,40.10
2022-11-14T17:47:58.540Z,41.63
2022-11-14T17:53:20.035Z,45.67
2022-11-14T17:58:41.696Z,62.22
2022-11-14T18:04:06.146Z,45.47
2022-11-14T18:09:29.517Z,44.37
2022-11-14T18:14:50.045Z,45.60
2022-11-14T18:20:11.123Z,48.13
2022-11-14T18:25:31.892Z,44.83
2022-11-14T18:30:56.767Z,44.77
2022-11-14T18:36:21.073Z,42.50
2022-11-14T18:41:42.073Z,40.20
2022-11-14T18:47:02.948Z,40.80
2022-11-14T18:52:23.765Z,41.20
2022-11-14T18:57:44.728Z,39.07
2022-11-14T19:03:06.559Z,43.50
2022-11-14T19:08:27.491Z,43.43
2022-11-14T19:13:48.873Z,43.90
2022-11-14T19:19:10.215Z,44.60
2022-11-14T19:24:31.253Z,41.87
2022-11-14T19:29:52.085Z,42.63
2022-11-14T19:35:20.089Z,40.53
2022-11-14T19:40:41.241Z,40.57
2022-11-14T19:46:03.954Z,40.10
2022-11-14T19:51:24.976Z,41.57
2022-11-14T19:56:45.850Z,46.63
2022-11-14T20:02:12.763Z,52.07
2022-11-14T20:07:35.451Z,48.63
2022-11-14T20:12:56.674Z,41.07
2022-11-14T20:18:18.186Z,39.27
2022-11-14T20:23:39.345Z,40.40
2022-11-14T20:29:00.432Z,39.50
2022-11-14T20:34:21.102Z,43.23
2022-11-14T20:39:42.186Z,40.20
2022-11-14T20:45:03.297Z,40.93
2022-11-14T20:50:24.633Z,41.23
2022-11-14T20:55:52.546Z,43.37
2022-11-14T21:01:14.562Z,43.17
2022-11-14T21:06:35.520Z,43.63
2022-11-14T21:11:56.381Z,41.70
2022-11-14T21:17:19.065Z,40.53
2022-11-14T21:22:40.119Z,39.57
2022-11-14T21:28:01.162Z,41.77
2022-11-14T21:33:22.351Z,45.17
2022-11-14T21:38:43.404Z,48.43
2022-11-14T21:44:04.351Z,49.60
2022-11-14T21:49:25.659Z,48.50
2022-11-14T21:54:46.471Z,45.73
2022-11-14T22:00:08.064Z,43.87
2022-11-14T22:05:29.014Z,42.83
2022-11-14T22:10:49.899Z,41.63
2022-11-14T22:16:11.683Z,39.20
2022-11-14T22:21:32.690Z,40.00
2022-11-14T22:26:53.822Z,37.73
2022-11-14T22:32:15.011Z,39.53
2022-11-14T22:37:35.771Z,39.60
2022-11-14T22:42:59.388Z,39.43
2022-11-14T22:48:20.997Z,38.80
2022-11-14T22:53:42.454Z,37.73
2022-11-14T22:59:03.467Z,39.13
2022-11-14T23:04:25.112Z,42.90
2022-11-14T23:09:45.871Z,37.63
2022-11-14T23:15:07.114Z,36.07
2022-11-14T23:20:28.490Z,37.10
2022-11-14T23:25:49.491Z,38.47
2022-11-14T23:31:11.664Z,38.70
2022-11-14T23:36:32.611Z,40.27
2022-11-14T23:41:53.488Z,35.73
2022-11-14T23:47:14.440Z,37.27
2022-11-14T23:52:35.177Z,37.23
2022-11-14T23:57:56.103Z,39.67
